Time;durP1;ratioP1;P1;durP2;ratioP2;P2;SDS_P1;SDS_P2;PMS_P1;PMS_P2;Temp;Humidity;BMP_temperature;BMP_pressure;BME280_temperature;BME280_humidity;BME280_pressure;Samples;Min_cycle;Max_cycle;Signal;HPM_P1;HPM_P2
2023/07/14 00:00:34;;;;;;;4.30;2.83;;;16.30;99.90;;;;;;6256414;28;20049;-81
2023/07/14 00:03:37;;;;;;;5.53;2.53;;;16.30;99.90;;;;;;6255423;28;20050;-79
2023/07/14 00:06:40;;;;;;;11.30;7.18;;;16.20;99.90;;;;;;6256900;28;20124;-80
2023/07/14 00:09:43;;;;;;;9.27;4.25;;;16.20;99.90;;;;;;6256401;28;20050;-79
2023/07/14 00:12:45;;;;;;;3.85;2.42;;;16.00;99.90;;;;;;6250392;28;20053;-79
2023/07/14 00:15:47;;;;;;;3.97;2.38;;;16.00;99.90;;;;;;6259561;28;20428;-79
2023/07/14 00:18:51;;;;;;;3.10;2.38;;;16.00;99.90;;;;;;6255134;28;20060;-80
2023/07/14 00:21:53;;;;;;;4.00;2.30;;;15.90;99.90;;;;;;6253528;28;20060;-80
2023/07/14 00:24:54;;;;;;;4.50;2.38;;;15.90;99.90;;;;;;6259607;28;20053;-81
2023/07/14 00:27:57;;;;;;;7.90;2.55;;;15.80;99.90;;;;;;6259886;28;20049;-82
2023/07/14 00:30:59;;;;;;;2.33;1.75;;;15.90;99.90;;;;;;6253083;28;20057;-81
2023/07/14 00:34:02;;;;;;;3.65;3.10;;;15.90;99.90;;;;;;6260245;28;20045;-82
2023/07/14 00:37:04;;;;;;;4.82;3.33;;;15.90;99.90;;;;;;6260046;28;20101;-82
2023/07/14 00:40:07;;;;;;;4.32;2.30;;;15.80;99.90;;;;;;6254450;28;20049;-81
2023/07/14 00:43:17;;;;;;;3.92;2.63;;;15.80;99.90;;;;;;6254741;28;20055;-79
2023/07/14 00:46:25;;;;;;;5.57;3.00;;;15.70;99.90;;;;;;6255598;28;20113;-81
2023/07/14 00:49:34;;;;;;;3.80;2.35;;;15.70;99.90;;;;;;6256417;28;20060;-82
2023/07/14 00:52:41;;;;;;;3.88;2.33;;;15.60;99.90;;;;;;6254839;28;20053;-82
2023/07/14 00:55:46;;;;;;;3.30;2.58;;;15.50;99.90;;;;;;6254360;28;20058;-80
2023/07/14 00:58:49;;;;;;;5.10;2.38;;;15.50;99.90;;;;;;6254428;28;20060;-83
2023/07/14 01:02:17;;;;;;;4.63;2.45;;;15.40;99.90;;;;;;6257400;28;20132;-83
2023/07/14 01:05:20;;;;;;;5.10;2.45;;;15.40;99.90;;;;;;6258118;28;20053;-79
2023/07/14 01:08:22;;;;;;;6.00;2.83;;;15.50;99.90;;;;;;6255103;28;20424;-81
2023/07/14 01:11:30;;;;;;;2.28;2.08;;;15.50;99.90;;;;;;6255813;28;20054;-83
2023/07/14 01:14:36;;;;;;;5.82;2.65;;;15.50;99.90;;;;;;6256127;28;20048;-81
2023/07/14 01:17:39;;;;;;;6.68;2.65;;;15.40;99.90;;;;;;6256111;28;20059;-81
2023/07/14 01:20:42;;;;;;;5.22;2.95;;;15.30;99.90;;;;;;6256859;28;20064;-81
2023/07/14 01:23:56;;;;;;;6.13;2.60;;;15.30;99.90;;;;;;6255312;28;20053;-83
2023/07/14 01:27:06;;;;;;;4.18;2.55;;;15.30;99.90;;;;;;6257178;28;20049;-82
2023/07/14 01:30:09;;;;;;;2.50;2.30;;;15.30;99.90;;;;;;6255027;28;20045;-81
2023/07/14 01:33:13;;;;;;;6.53;3.40;;;15.30;99.90;;;;;;6256897;28;20507;-79
2023/07/14 01:36:15;;;;;;;2.83;2.58;;;15.30;99.90;;;;;;6261110;28;20042;-81
2023/07/14 01:39:18;;;;;;;3.97;2.05;;;15.30;99.90;;;;;;6260541;28;20075;-81
2023/07/14 01:42:23;;;;;;;3.78;2.83;;;15.20;99.90;;;;;;6259101;28;20045;-80
2023/07/14 01:45:27;;;;;;;6.05;2.72;;;15.00;99.90;;;;;;6261435;28;20054;-84
2023/07/14 01:48:32;;;;;;;7.88;2.15;;;15.00;99.90;;;;;;6259473;28;20052;-82
2023/07/14 01:51:38;;;;;;;3.42;2.65;;;15.10;99.90;;;;;;6259829;28;20072;-80
2023/07/14 01:54:43;;;;;;;2.90;2.33;;;15.10;99.90;;;;;;6259211;28;20049;-80
2023/07/14 01:57:48;;;;;;;5.53;2.58;;;15.00;99.90;;;;;;6258421;28;20046;-83
2023/07/14 02:00:53;;;;;;;4.70;3.50;;;15.00;99.90;;;;;;6258335;28;20046;-82
2023/07/14 02:03:57;;;;;;;7.25;2.60;;;14.90;99.90;;;;;;6258181;28;20049;-81
2023/07/14 02:07:01;;;;;;;3.53;2.47;;;14.90;99.90;;;;;;6257716;28;20052;-83
2023/07/14 02:10:03;;;;;;;5.60;3.17;;;15.00;99.90;;;;;;6256394;28;20045;-82
2023/07/14 02:13:06;;;;;;;3.30;2.80;;;15.00;99.90;;;;;;6251717;28;20064;-82
2023/07/14 02:16:14;;;;;;;5.53;2.88;;;14.80;99.90;;;;;;6252998;28;20045;-79
2023/07/14 02:19:20;;;;;;;4.55;2.47;;;14.70;99.90;;;;;;6250858;28;20065;-79
2023/07/14 02:22:22;;;;;;;6.90;2.75;;;14.60;99.90;;;;;;6253988;28;20049;-79
2023/07/14 02:25:28;;;;;;;2.92;2.72;;;14.50;99.90;;;;;;6254757;28;20050;-80
2023/07/14 02:28:30;;;;;;;2.67;2.47;;;14.50;99.90;;;;;;6255374;28;20038;-80
2023/07/14 02:31:38;;;;;;;3.70;2.80;;;14.50;99.90;;;;;;6255695;28;20052;-80
2023/07/14 02:34:46;;;;;;;7.30;2.65;;;14.40;99.90;;;;;;6255497;28;20056;-79
2023/07/14 02:38:03;;;;;;;2.55;2.30;;;14.40;99.90;;;;;;6253856;28;20056;-79
2023/07/14 02:41:09;;;;;;;4.40;3.25;;;14.30;99.90;;;;;;6253307;28;20056;-80
2023/07/14 02:44:15;;;;;;;3.22;2.20;;;14.30;99.90;;;;;;6252387;28;20045;-79
2023/07/14 02:47:21;;;;;;;3.15;2.85;;;14.40;99.90;;;;;;6252136;28;20050;-80
2023/07/14 02:50:22;;;;;;;3.58;2.53;;;14.30;99.90;;;;;;6253774;28;20508;-79
2023/07/14 02:53:24;;;;;;;2.88;2.10;;;14.20;99.90;;;;;;6254355;28;20144;-81
2023/07/14 02:56:26;;;;;;;3.38;2.88;;;14.20;99.90;;;;;;6254436;28;20128;-80
2023/07/14 02:59:29;;;;;;;3.80;2.97;;;14.10;99.90;;;;;;6254464;28;20045;-82
2023/07/14 03:02:30;;;;;;;6.25;2.97;;;14.10;99.90;;;;;;6253411;28;20042;-82
2023/07/14 03:05:32;;;;;;;6.72;3.03;;;14.00;99.90;;;;;;6254741;28;20049;-79
2023/07/14 03:08:34;;;;;;;4.75;2.53;;;14.00;99.90;;;;;;6254259;28;20050;-82
2023/07/14 03:11:36;;;;;;;4.30;2.78;;;14.10;99.90;;;;;;6256124;28;20068;-81
2023/07/14 03:14:39;;;;;;;4.43;2.88;;;14.10;99.90;;;;;;6255642;28;20049;-79
2023/07/14 03:17:41;;;;;;;3.28;2.97;;;14.00;99.90;;;;;;6256318;28;20045;-80
2023/07/14 03:20:43;;;;;;;2.70;2.50;;;14.00;99.90;;;;;;6259292;28;20141;-81
2023/07/14 03:23:45;;;;;;;5.47;3.67;;;14.00;99.90;;;;;;6258869;28;20478;-82
2023/07/14 03:26:46;;;;;;;2.38;2.17;;;14.10;99.90;;;;;;6257140;28;20336;-80
2023/07/14 03:29:49;;;;;;;7.85;3.22;;;14.20;99.90;;;;;;6255343;28;20404;-81
2023/07/14 03:32:51;;;;;;;4.28;2.47;;;14.40;99.90;;;;;;6260078;28;20072;-82
2023/07/14 03:35:53;;;;;;;5.70;2.75;;;14.40;99.90;;;;;;6259313;28;20230;-81
2023/07/14 03:39:20;;;;;;;4.15;2.58;;;14.60;99.90;;;;;;6259108;28;20528;-83
2023/07/14 03:42:21;;;;;;;2.72;2.47;;;14.80;99.90;;;;;;6259927;28;20041;-82
2023/07/14 03:45:24;;;;;;;8.75;3.35;;;15.00;99.90;;;;;;6259936;28;20057;-81
2023/07/14 03:48:26;;;;;;;15.48;5.20;;;15.10;99.90;;;;;;6258872;28;20105;-82
2023/07/14 03:51:30;;;;;;;4.93;2.92;;;15.10;99.90;;;;;;6259268;28;20057;-82
2023/07/14 03:54:32;;;;;;;18.02;5.43;;;15.20;99.90;;;;;;6259951;28;20131;-80
2023/07/14 03:57:35;;;;;;;21.02;6.38;;;15.30;99.90;;;;;;6259046;28;20428;-82
2023/07/14 04:00:38;;;;;;;15.68;4.57;;;15.30;99.90;;;;;;6258302;28;20053;-82
2023/07/14 04:03:40;;;;;;;6.95;4.03;;;15.20;99.90;;;;;;6258742;28;20051;-81
2023/07/14 04:06:41;;;;;;;11.27;4.03;;;15.20;99.90;;;;;;6259574;28;20068;-81
2023/07/14 04:09:43;;;;;;;4.47;2.83;;;15.40;99.90;;;;;;6258093;28;20053;-81
2023/07/14 04:12:47;;;;;;;3.67;2.85;;;15.50;99.90;;;;;;6258913;28;20056;-82
2023/07/14 04:15:50;;;;;;;4.03;2.17;;;15.50;99.90;;;;;;6257922;28;20108;-81
2023/07/14 04:18:52;;;;;;;3.67;2.10;;;15.40;99.90;;;;;;6257602;28;20052;-82
2023/07/14 04:21:57;;;;;;;3.05;2.75;;;15.50;99.90;;;;;;6257496;28;20049;-82
2023/07/14 04:24:59;;;;;;;3.13;2.72;;;15.60;99.90;;;;;;6258366;28;20063;-81
2023/07/14 04:28:00;;;;;;;5.70;2.58;;;15.70;99.90;;;;;;6256972;28;20575;-81
2023/07/14 04:31:03;;;;;;;4.07;3.13;;;15.90;99.90;;;;;;6257727;28;20041;-82
2023/07/14 04:34:05;;;;;;;4.65;2.78;;;15.90;99.90;;;;;;6257102;28;20053;-82
2023/07/14 04:37:07;;;;;;;2.60;2.40;;;15.90;99.90;;;;;;6257170;28;20485;-82
2023/07/14 04:40:10;;;;;;;2.72;1.90;;;15.90;99.90;;;;;;6256608;28;20053;-80
2023/07/14 04:43:12;;;;;;;4.60;3.25;;;15.80;99.90;;;;;;6257181;28;20132;-82
2023/07/14 04:46:15;;;;;;;3.30;2.78;;;15.90;99.90;;;;;;6256929;28;20060;-82
2023/07/14 04:49:17;;;;;;;3.33;2.63;;;16.10;99.90;;;;;;6259248;28;20053;-82
2023/07/14 04:52:19;;;;;;;9.55;2.30;;;16.30;99.90;;;;;;6257867;28;20057;-82
2023/07/14 04:55:21;;;;;;;2.50;2.30;;;16.50;99.90;;;;;;6257698;28;20052;-83
2023/07/14 04:58:22;;;;;;;7.97;2.85;;;16.60;99.90;;;;;;6257143;28;20050;-82
2023/07/14 05:01:27;;;;;;;2.20;2.00;;;16.80;99.90;;;;;;6258529;28;20049;-81
2023/07/14 05:04:29;;;;;;;2.45;2.10;;;16.90;99.90;;;;;;6257321;28;20045;-82
2023/07/14 05:07:31;;;;;;;8.07;2.28;;;17.00;99.90;;;;;;6257020;28;20049;-79
2023/07/14 05:10:34;;;;;;;6.18;3.38;;;17.30;99.90;;;;;;6262157;28;20055;-81
2023/07/14 05:13:36;;;;;;;6.57;2.45;;;17.50;99.90;;;;;;6252727;28;20104;-79
2023/07/14 05:16:39;;;;;;;4.15;2.53;;;17.60;99.90;;;;;;6276806;28;20042;-83
2023/07/14 05:19:41;;;;;;;2.97;2.67;;;17.70;99.90;;;;;;6262376;28;20037;-82
2023/07/14 05:22:44;;;;;;;2.53;2.30;;;17.70;99.90;;;;;;6276142;28;20045;-80
2023/07/14 05:25:46;;;;;;;7.28;2.45;;;17.80;99.90;;;;;;6262518;28;20053;-81
2023/07/14 05:28:48;;;;;;;6.35;3.63;;;17.90;99.90;;;;;;6260371;28;20065;-79
2023/07/14 05:31:51;;;;;;;4.45;2.65;;;18.00;99.90;;;;;;6258196;28;20270;-80
2023/07/14 05:34:53;;;;;;;4.43;2.15;;;18.10;99.90;;;;;;6259350;28;20052;-80
2023/07/14 05:37:56;;;;;;;5.20;2.50;;;18.20;99.90;;;;;;6259534;28;20057;-81
2023/07/14 05:40:58;;;;;;;4.82;2.75;;;18.30;99.90;;;;;;6260272;28;20059;-83
2023/07/14 05:44:00;;;;;;;5.50;2.55;;;18.40;99.90;;;;;;6258660;28;20049;-82
2023/07/14 05:47:03;;;;;;;6.03;3.28;;;18.40;99.90;;;;;;6259457;28;20047;-81
2023/07/14 05:50:07;;;;;;;5.97;3.88;;;18.50;99.90;;;;;;6259742;28;20041;-81
2023/07/14 05:53:08;;;;;;;2.83;2.17;;;18.60;99.90;;;;;;6260295;28;20135;-80
2023/07/14 05:56:10;;;;;;;4.95;2.72;;;18.70;99.90;;;;;;6255034;28;20061;-81
2023/07/14 05:59:12;;;;;;;7.68;2.47;;;18.90;99.90;;;;;;6254543;28;20092;-80
2023/07/14 06:02:15;;;;;;;5.32;2.05;;;19.10;99.90;;;;;;6254227;28;20037;-80
2023/07/14 06:05:19;;;;;;;4.55;2.78;;;19.30;99.90;;;;;;6257112;28;20489;-80
2023/07/14 06:08:21;;;;;;;5.38;2.72;;;19.50;99.90;;;;;;6249107;28;20095;-80
2023/07/14 06:11:22;;;;;;;6.20;2.70;;;19.80;99.90;;;;;;6252848;28;20077;-80
2023/07/14 06:14:24;;;;;;;5.20;2.92;;;20.00;99.90;;;;;;6252035;28;20526;-80
2023/07/14 06:17:27;;;;;;;4.50;3.33;;;20.20;99.90;;;;;;6255288;28;20420;-80
2023/07/14 06:20:29;;;;;;;14.52;3.83;;;20.40;99.90;;;;;;6254144;28;20052;-82
2023/07/14 06:23:31;;;;;;;7.90;2.88;;;20.70;99.90;;;;;;6253849;28;20045;-80
2023/07/14 06:26:32;;;;;;;6.70;2.88;;;21.10;99.90;;;;;;6253727;28;20057;-81
2023/07/14 06:29:34;;;;;;;5.90;3.30;;;21.40;99.90;;;;;;6255125;28;20045;-81
2023/07/14 06:32:38;;;;;;;5.55;2.97;;;21.60;99.40;;;;;;6253916;28;20049;-80
2023/07/14 06:35:40;;;;;;;5.63;2.53;;;21.60;98.60;;;;;;6254895;28;20049;-81
2023/07/14 06:38:43;;;;;;;4.22;3.33;;;21.60;98.20;;;;;;6255941;28;20061;-81
2023/07/14 06:41:46;;;;;;;4.38;2.75;;;21.70;98.00;;;;;;6253501;28;20045;-81
2023/07/14 06:44:47;;;;;;;6.25;3.05;;;22.20;97.40;;;;;;6256061;28;20067;-80
2023/07/14 06:47:50;;;;;;;4.93;2.22;;;22.60;96.00;;;;;;6254340;28;20187;-81
2023/07/14 06:50:52;;;;;;;5.75;1.52;;;23.00;94.80;;;;;;6254074;28;20037;-81
2023/07/14 06:53:54;;;;;;;9.15;2.70;;;23.10;93.80;;;;;;6253693;28;20061;-81
2023/07/14 06:56:57;;;;;;;5.15;1.90;;;23.30;93.10;;;;;;6255070;28;20076;-80
2023/07/14 06:59:58;;;;;;;5.07;2.17;;;23.70;92.40;;;;;;6253055;28;20049;-81
2023/07/14 07:03:03;;;;;;;3.92;1.95;;;24.20;91.50;;;;;;6254482;28;20054;-81
2023/07/14 07:06:04;;;;;;;3.72;2.10;;;24.60;90.40;;;;;;6254199;28;20061;-81
2023/07/14 07:09:06;;;;;;;5.35;2.40;;;24.90;88.80;;;;;;6254405;28;20176;-81
2023/07/14 07:12:09;;;;;;;6.53;1.85;;;25.50;87.50;;;;;;6255744;28;20057;-79
2023/07/14 07:15:11;;;;;;;4.32;1.63;;;26.50;84.60;;;;;;6254488;28;20049;-79
2023/07/14 07:18:14;;;;;;;3.47;1.80;;;27.50;80.70;;;;;;6254191;28;20066;-79
2023/07/14 07:21:16;;;;;;;5.82;2.35;;;28.20;76.40;;;;;;6253927;28;20057;-79
2023/07/14 07:24:18;;;;;;;8.38;2.17;;;28.80;73.60;;;;;;6252479;28;20050;-80
2023/07/14 07:27:19;;;;;;;4.80;2.28;;;29.10;71.20;;;;;;6252649;28;20049;-79
2023/07/14 07:30:21;;;;;;;3.97;1.75;;;29.40;69.20;;;;;;6252295;28;20056;-79
2023/07/14 07:33:25;;;;;;;7.05;2.47;;;30.10;67.40;;;;;;6253115;28;20049;-79
2023/07/14 07:36:27;;;;;;;6.72;1.67;;;30.90;64.90;;;;;;6252045;28;20053;-79
2023/07/14 07:39:29;;;;;;;8.80;2.67;;;31.30;62.10;;;;;;6253013;28;20045;-80
2023/07/14 07:42:31;;;;;;;4.53;1.80;;;31.60;60.60;;;;;;6252783;28;20045;-79
2023/07/14 07:45:33;;;;;;;3.97;2.00;;;31.80;59.20;;;;;;6253497;28;20049;-80
2023/07/14 07:48:36;;;;;;;2.40;1.48;;;32.10;57.80;;;;;;6252557;28;20050;-79
2023/07/14 07:51:38;;;;;;;15.30;2.25;;;32.40;56.40;;;;;;6252556;28;20052;-80
2023/07/14 07:54:40;;;;;;;6.57;2.40;;;32.80;55.40;;;;;;6252023;28;20061;-79
2023/07/14 07:57:42;;;;;;;4.47;1.30;;;33.20;54.10;;;;;;6252814;28;20049;-78
2023/07/14 08:00:45;;;;;;;2.60;0.95;;;33.60;52.30;;;;;;6253191;28;20053;-79
2023/07/14 08:03:48;;;;;;;3.30;1.50;;;33.80;51.10;;;;;;6252286;28;20076;-79
2023/07/14 08:06:49;;;;;;;3.45;1.40;;;33.70;49.70;;;;;;6251503;28;20048;-80
2023/07/14 08:09:53;;;;;;;2.10;1.30;;;32.90;49.30;;;;;;6251690;28;20053;-79
2023/07/14 08:12:55;;;;;;;5.22;1.95;;;32.50;49.80;;;;;;6252117;28;20100;-79
2023/07/14 08:15:57;;;;;;;11.63;1.92;;;32.40;49.70;;;;;;6252287;28;20622;-79
2023/07/14 08:19:01;;;;;;;2.83;1.48;;;32.20;49.70;;;;;;6250817;28;20045;-79
2023/07/14 08:22:03;;;;;;;6.10;1.73;;;31.60;50.20;;;;;;6251242;28;20167;-79
2023/07/14 08:25:07;;;;;;;5.32;1.73;;;30.90;50.90;;;;;;6252859;28;20055;-79
2023/07/14 08:28:10;;;;;;;6.28;1.42;;;30.60;51.40;;;;;;6251102;28;20046;-81
2023/07/14 08:31:13;;;;;;;3.75;1.35;;;30.50;51.60;;;;;;6251030;28;20091;-80
2023/07/14 08:34:16;;;;;;;3.40;1.67;;;30.40;51.70;;;;;;6250967;28;20045;-81
2023/07/14 08:37:18;;;;;;;3.70;1.20;;;30.40;52.10;;;;;;6252259;28;20049;-81
2023/07/14 08:40:25;;;;;;;2.22;1.42;;;30.20;52.50;;;;;;6250946;28;20049;-80
2023/07/14 08:43:40;;;;;;;6.67;2.07;;;30.00;52.70;;;;;;6250684;28;20084;-81
2023/07/14 08:46:49;;;;;;;4.57;2.03;;;29.80;52.90;;;;;;6251273;28;20516;-80
2023/07/14 08:49:59;;;;;;;11.95;2.38;;;29.70;53.30;;;;;;6249628;28;20058;-80
2023/07/14 08:53:04;;;;;;;7.72;1.83;;;29.70;53.50;;;;;;6251545;28;20064;-81
2023/07/14 08:56:06;;;;;;;5.70;1.90;;;29.70;53.80;;;;;;6251330;28;20052;-81
2023/07/14 08:59:15;;;;;;;5.63;2.13;;;29.60;54.30;;;;;;6250821;28;20459;-81
2023/07/14 09:02:22;;;;;;;8.23;2.65;;;29.60;54.60;;;;;;6250809;28;20041;-80
2023/07/14 09:05:28;;;;;;;8.38;2.10;;;29.70;54.90;;;;;;6251834;28;20046;-79
2023/07/14 09:08:31;;;;;;;12.57;2.85;;;30.00;55.00;;;;;;6250712;28;20041;-81
2023/07/14 09:11:52;;;;;;;6.55;2.88;;;30.20;54.70;;;;;;6250894;28;20459;-80
2023/07/14 09:15:00;;;;;;;4.32;2.20;;;30.30;54.50;;;;;;6251202;28;20057;-80
2023/07/14 09:18:21;;;;;;;6.82;1.70;;;30.20;54.30;;;;;;6251152;28;20048;-80
2023/07/14 09:21:32;;;;;;;8.20;2.08;;;30.10;54.30;;;;;;6251566;28;20053;-81
2023/07/14 09:24:41;;;;;;;5.43;1.58;;;29.90;54.80;;;;;;6251026;28;20045;-80
2023/07/14 09:27:44;;;;;;;2.72;1.35;;;29.90;54.70;;;;;;6250098;28;20056;-80
2023/07/14 09:30:48;;;;;;;3.55;1.92;;;29.90;54.90;;;;;;6251203;28;20056;-80
2023/07/14 09:33:55;;;;;;;6.72;2.22;;;29.80;55.00;;;;;;6251210;28;20055;-79
2023/07/14 09:36:58;;;;;;;3.30;2.20;;;29.90;55.30;;;;;;6251161;28;20045;-80
2023/07/14 09:40:17;;;;;;;3.03;1.65;;;30.00;55.10;;;;;;6233651;28;20292;-79
2023/07/14 09:43:20;;;;;;;3.55;2.03;;;30.20;54.90;;;;;;6239626;28;20065;-78
2023/07/14 09:46:22;;;;;;;3.95;2.10;;;30.40;54.70;;;;;;6241564;28;20050;-80
2023/07/14 09:49:32;;;;;;;7.82;1.50;;;30.40;54.60;;;;;;6237113;28;20357;-79
2023/07/14 09:52:50;;;;;;;6.93;2.28;;;30.30;54.80;;;;;;6240901;28;20140;-79
2023/07/14 09:55:55;;;;;;;3.08;1.50;;;30.20;54.30;;;;;;6241765;28;20093;-80
2023/07/14 09:59:01;;;;;;;6.90;1.77;;;30.20;54.40;;;;;;6242143;28;20037;-82
2023/07/14 10:02:03;;;;;;;4.07;1.40;;;30.20;54.30;;;;;;6241304;28;20088;-81
2023/07/14 10:05:30;;;;;;;4.40;2.03;;;30.00;54.10;;;;;;6244107;28;20397;-81
2023/07/14 10:08:34;;;;;;;4.95;1.48;;;29.90;54.70;;;;;;6242427;28;20483;-79
2023/07/14 10:11:41;;;;;;;3.53;1.60;;;29.90;54.50;;;;;;6241834;28;20037;-81
2023/07/14 10:14:45;;;;;;;5.80;1.90;;;29.80;54.20;;;;;;6240454;28;20140;-80
2023/07/14 10:17:51;;;;;;;4.18;1.60;;;29.90;53.70;;;;;;6242611;28;20068;-78
2023/07/14 10:21:02;;;;;;;2.40;1.85;;;30.00;52.90;;;;;;6240909;28;20053;-81
2023/07/14 10:24:16;;;;;;;4.95;1.83;;;29.90;52.10;;;;;;6237195;28;20130;-80
2023/07/14 10:27:21;;;;;;;3.50;1.70;;;29.90;51.70;;;;;;6245261;28;20053;-81
2023/07/14 10:30:46;;;;;;;2.55;1.70;;;30.10;51.00;;;;;;6240140;28;20038;-78
2023/07/14 10:34:10;;;;;;;4.85;1.60;;;30.30;50.10;;;;;;6243192;28;20067;-79
2023/07/14 10:37:19;;;;;;;3.85;1.67;;;30.20;49.80;;;;;;6241176;28;20049;-80
2023/07/14 10:40:26;;;;;;;4.93;2.25;;;30.10;49.90;;;;;;6238894;28;20053;-82
2023/07/14 10:43:33;;;;;;;5.60;2.00;;;30.10;50.10;;;;;;6242297;28;20460;-81
2023/07/14 10:46:40;;;;;;;2.83;1.58;;;30.30;50.10;;;;;;6241760;28;20041;-79
2023/07/14 10:49:46;;;;;;;3.15;1.50;;;30.60;50.00;;;;;;6245638;28;20499;-80
2023/07/14 10:52:53;;;;;;;3.58;1.52;;;30.60;49.80;;;;;;6245670;28;20454;-79
2023/07/14 10:56:00;;;;;;;5.72;1.50;;;30.80;49.80;;;;;;6240517;28;20055;-80
2023/07/14 10:59:12;;;;;;;6.78;2.65;;;31.10;49.40;;;;;;6240814;28;21240;-79
2023/07/14 11:02:22;;;;;;;4.30;1.35;;;31.40;49.00;;;;;;6241314;28;20045;-82
2023/07/14 11:05:27;;;;;;;3.75;2.60;;;31.90;48.00;;;;;;6238264;28;20057;-80
2023/07/14 11:08:31;;;;;;;4.60;1.55;;;32.20;46.40;;;;;;6241602;28;20057;-80
2023/07/14 11:11:48;;;;;;;4.53;1.25;;;32.00;46.00;;;;;;6241943;28;20587;-79
2023/07/14 11:14:58;;;;;;;2.90;1.42;;;31.90;45.20;;;;;;6249359;28;20041;-80
2023/07/14 11:18:08;;;;;;;4.40;1.75;;;31.80;45.20;;;;;;6248210;28;20053;-79
2023/07/14 11:21:21;;;;;;;2.80;1.98;;;31.60;45.50;;;;;;6250423;28;20037;-80
2023/07/14 11:24:28;;;;;;;3.75;1.55;;;31.30;45.30;;;;;;6247686;28;20057;-81
2023/07/14 11:27:36;;;;;;;3.83;1.73;;;31.00;45.70;;;;;;6245470;28;20052;-81
2023/07/14 11:30:41;;;;;;;3.85;1.52;;;30.90;45.60;;;;;;6246465;28;20068;-79
2023/07/14 11:33:48;;;;;;;4.05;1.80;;;30.30;46.00;;;;;;6244785;28;20052;-79
2023/07/14 11:36:59;;;;;;;1.55;1.35;;;30.30;46.50;;;;;;6243519;28;20064;-79
2023/07/14 11:40:05;;;;;;;2.33;1.30;;;30.40;46.00;;;;;;6239616;28;20406;-80
2023/07/14 11:43:14;;;;;;;3.15;1.45;;;30.30;46.10;;;;;;6240257;28;20570;-81
2023/07/14 11:46:20;;;;;;;5.57;2.10;;;30.50;46.40;;;;;;6241331;28;20041;-81
2023/07/14 11:49:27;;;;;;;3.85;2.00;;;30.90;45.50;;;;;;6240988;28;20050;-81
2023/07/14 11:52:31;;;;;;;2.90;0.90;;;31.20;45.50;;;;;;6242680;28;20507;-80
2023/07/14 11:55:35;;;;;;;3.90;1.60;;;31.40;45.30;;;;;;6238892;28;20516;-78
2023/07/14 11:58:39;;;;;;;2.08;1.40;;;31.50;44.80;;;;;;6241623;28;20049;-81
2023/07/14 12:01:46;;;;;;;2.55;1.23;;;31.20;43.90;;;;;;6239927;28;20117;-78
2023/07/14 12:04:59;;;;;;;7.85;2.05;;;30.60;44.80;;;;;;6239294;28;20543;-79
2023/07/14 12:08:22;;;;;;;1.67;1.25;;;30.90;44.80;;;;;;6238423;28;20404;-79
2023/07/14 12:11:26;;;;;;;2.85;1.23;;;30.80;43.90;;;;;;6239155;28;20053;-82
2023/07/14 12:14:46;;;;;;;2.58;1.20;;;31.00;43.00;;;;;;6238967;28;20049;-81
2023/07/14 12:17:48;;;;;;;10.48;8.18;;;31.30;42.20;;;;;;6239626;28;20056;-81
2023/07/14 12:20:51;;;;;;;2.15;1.50;;;31.80;42.40;;;;;;6238308;28;20053;-81
2023/07/14 12:23:54;;;;;;;3.88;1.30;;;32.20;42.40;;;;;;6237797;28;20049;-80
2023/07/14 12:27:06;;;;;;;3.47;1.33;;;32.60;42.30;;;;;;6238046;28;20063;-78
2023/07/14 12:30:19;;;;;;;2.88;1.63;;;32.80;41.90;;;;;;6235510;28;20134;-82
2023/07/14 12:33:21;;;;;;;3.97;1.80;;;33.20;42.10;;;;;;6238515;28;20160;-81
2023/07/14 12:36:24;;;;;;;15.63;2.20;;;33.70;41.30;;;;;;6238983;28;20064;-80
2023/07/14 12:39:25;;;;;;;5.32;2.13;;;33.90;40.70;;;;;;6236413;28;20041;-80
2023/07/14 12:42:27;;;;;;;3.95;2.08;;;34.10;40.90;;;;;;6238001;28;20074;-78
2023/07/14 12:45:31;;;;;;;2.78;1.48;;;34.50;40.70;;;;;;6238138;28;20061;-84
2023/07/14 12:48:34;;;;;;;3.45;1.25;;;34.90;40.00;;;;;;6239831;28;20060;-80
2023/07/14 12:51:37;;;;;;;4.65;1.25;;;35.20;38.90;;;;;;6240255;28;20045;-79
2023/07/14 12:54:43;;;;;;;6.72;1.42;;;35.20;38.80;;;;;;6242615;28;20144;-80
2023/07/14 12:57:47;;;;;;;1.70;1.35;;;35.30;38.60;;;;;;6246876;28;20115;-80
2023/07/14 13:00:55;;;;;;;2.42;1.25;;;35.40;37.70;;;;;;6246401;28;20049;-78
2023/07/14 13:03:57;;;;;;;2.03;1.33;;;35.10;36.70;;;;;;6246832;28;20052;-80
2023/07/14 13:07:04;;;;;;;2.72;1.20;;;34.90;37.30;;;;;;6245025;28;20064;-80
2023/07/14 13:10:14;;;;;;;2.65;1.02;;;34.70;36.80;;;;;;6243564;28;20054;-81
2023/07/14 13:13:20;;;;;;;3.58;1.15;;;34.30;36.90;;;;;;6248124;28;20056;-80
2023/07/14 13:16:29;;;;;;;2.05;1.00;;;33.90;37.10;;;;;;6244540;28;20050;-81
2023/07/14 13:19:35;;;;;;;2.70;1.00;;;33.70;37.40;;;;;;6246558;28;20087;-79
2023/07/14 13:22:37;;;;;;;1.88;1.10;;;33.50;37.40;;;;;;6243245;28;20053;-80
2023/07/14 13:25:43;;;;;;;3.30;1.65;;;33.30;37.70;;;;;;6239731;28;20049;-81
2023/07/14 13:28:56;;;;;;;1.40;1.20;;;33.00;38.10;;;;;;6240602;28;20069;-80
2023/07/14 13:32:01;;;;;;;4.85;1.30;;;33.00;38.70;;;;;;6245750;28;20519;-78
2023/07/14 13:35:07;;;;;;;2.33;1.50;;;32.90;38.80;;;;;;6245850;28;20060;-79
2023/07/14 13:38:14;;;;;;;6.97;1.77;;;32.60;38.80;;;;;;6247551;28;20049;-81
2023/07/14 13:41:16;;;;;;;;;;;32.30;39.20;;;;;;6225061;28;20049;-79
2023/07/14 13:44:35;;;;;;;2.97;1.33;;;32.10;39.30;;;;;;6243056;28;19921;-79
2023/07/14 13:47:45;;;;;;;1.20;1.10;;;31.90;39.80;;;;;;6238946;28;20111;-79
2023/07/14 13:50:47;;;;;;;2.92;1.77;;;31.60;40.10;;;;;;6239125;28;20052;-79
2023/07/14 13:53:50;;;;;;;4.85;1.38;;;31.40;40.40;;;;;;6250513;28;20053;-79
2023/07/14 13:56:53;;;;;;;2.90;1.27;;;31.80;40.30;;;;;;6248978;28;20049;-79
2023/07/14 13:59:55;;;;;;;3.90;1.48;;;32.10;40.00;;;;;;6247108;28;20041;-79
2023/07/14 14:03:00;;;;;;;5.07;1.80;;;32.50;39.90;;;;;;6251657;28;20073;-80
2023/07/14 14:06:02;;;;;;;5.22;1.65;;;32.90;39.80;;;;;;6249780;28;20152;-80
2023/07/14 14:09:05;;;;;;;5.47;1.80;;;33.30;39.20;;;;;;6249752;28;20056;-80
2023/07/14 14:12:07;;;;;;;2.70;1.30;;;33.80;38.90;;;;;;6243368;28;20045;-79
2023/07/14 14:15:14;;;;;;;5.00;1.70;;;34.40;38.50;;;;;;6249773;28;20049;-79
2023/07/14 14:18:20;;;;;;;7.20;1.45;;;35.00;38.30;;;;;;6248841;28;22325;-79
2023/07/14 14:21:22;;;;;;;1.40;1.02;;;35.60;37.80;;;;;;6249040;28;20049;-81
2023/07/14 14:24:24;;;;;;;1.75;1.02;;;36.10;37.70;;;;;;6246966;28;20041;-80
2023/07/14 14:27:26;;;;;;;4.72;1.00;;;36.20;37.10;;;;;;6247843;28;20052;-80
2023/07/14 14:30:33;;;;;;;2.78;1.63;;;35.90;37.00;;;;;;6242922;28;20053;-80
2023/07/14 14:33:36;;;;;;;1.83;1.17;;;36.00;37.10;;;;;;6245867;28;20067;-80
2023/07/14 14:36:38;;;;;;;4.32;1.20;;;36.20;37.10;;;;;;6247630;28;20053;-80
2023/07/14 14:39:41;;;;;;;2.17;1.50;;;36.40;37.10;;;;;;6245932;28;20045;-79
2023/07/14 14:42:44;;;;;;;1.92;1.65;;;36.70;36.40;;;;;;6243288;28;20504;-79
2023/07/14 14:45:46;;;;;;;3.22;1.48;;;36.70;36.20;;;;;;6243733;28;20068;-79
2023/07/14 14:48:49;;;;;;;2.10;1.88;;;36.30;36.50;;;;;;6244395;28;20060;-79
2023/07/14 14:51:53;;;;;;;1.95;1.20;;;35.90;36.60;;;;;;6241946;28;20412;-79
2023/07/14 14:54:55;;;;;;;2.58;1.92;;;35.50;36.90;;;;;;6243038;28;20060;-80
2023/07/14 14:57:57;;;;;;;1.30;1.20;;;35.40;37.00;;;;;;6241702;28;20065;-80
2023/07/14 15:01:04;;;;;;;1.45;1.02;;;35.20;37.00;;;;;;6242263;28;20053;-80
2023/07/14 15:04:15;;;;;;;1.92;1.63;;;35.30;37.50;;;;;;6245761;28;20058;-79
2023/07/14 15:07:17;;;;;;;3.00;1.40;;;35.90;37.40;;;;;;6247482;28;20041;-81
2023/07/14 15:10:23;;;;;;;2.17;1.02;;;36.20;37.00;;;;;;6242974;28;20096;-79
2023/07/14 15:13:26;;;;;;;1.50;1.10;;;36.00;36.60;;;;;;6238467;28;20049;-81
2023/07/14 15:16:28;;;;;;;1.67;1.20;;;35.80;36.80;;;;;;6237982;28;20057;-78
2023/07/14 15:19:31;;;;;;;1.98;1.25;;;35.80;36.90;;;;;;6242590;28;20053;-81
2023/07/14 15:22:33;;;;;;;1.95;1.15;;;35.70;37.00;;;;;;6240892;28;20072;-81
2023/07/14 15:25:35;;;;;;;1.50;1.10;;;35.70;36.70;;;;;;6239777;28;20041;-81
2023/07/14 15:28:37;;;;;;;4.30;1.40;;;35.70;36.90;;;;;;6245616;28;20053;-81
2023/07/14 15:31:43;;;;;;;3.95;1.42;;;36.00;37.10;;;;;;6237573;28;20046;-81
2023/07/14 15:34:46;;;;;;;2.67;1.33;;;36.30;37.40;;;;;;6241415;28;20041;-80
2023/07/14 15:37:50;;;;;;;1.95;1.73;;;36.70;37.40;;;;;;6248272;28;20053;-80
2023/07/14 15:40:56;;;;;;;4.68;1.23;;;36.90;37.20;;;;;;6245705;28;20045;-79
2023/07/14 15:44:01;;;;;;;2.08;1.75;;;36.80;37.00;;;;;;6242960;28;20059;-80
2023/07/14 15:47:04;;;;;;;2.72;1.42;;;36.60;36.90;;;;;;6238283;28;20152;-78
2023/07/14 15:50:07;;;;;;;3.83;1.60;;;36.30;37.20;;;;;;6240209;28;20065;-81
2023/07/14 15:53:15;;;;;;;2.03;1.48;;;36.10;37.60;;;;;;6240239;28;20041;-81
2023/07/14 15:56:18;;;;;;;4.07;1.60;;;36.10;37.40;;;;;;6239534;28;20401;-80
2023/07/14 15:59:19;;;;;;;2.58;1.50;;;36.10;37.50;;;;;;6238540;28;20045;-80